createdAt,value
2023-06-09T00:01:32.018Z,8.70
2023-06-09T00:03:58.976Z,9.50
2023-06-09T00:06:25.547Z,10.27
2023-06-09T00:08:52.858Z,11.57
2023-06-09T00:11:19.953Z,10.15
2023-06-09T00:13:46.812Z,11.40
2023-06-09T00:16:13.308Z,12.35
2023-06-09T00:18:41.347Z,10.77
2023-06-09T00:21:07.929Z,10.85
2023-06-09T00:23:35.183Z,12.00
2023-06-09T00:26:01.807Z,9.63
2023-06-09T00:28:28.356Z,10.60
2023-06-09T00:30:54.885Z,8.85
2023-06-09T00:33:21.440Z,10.38
2023-06-09T00:35:50.270Z,10.85
2023-06-09T00:38:16.769Z,10.93
2023-06-09T00:40:43.263Z,10.13
2023-06-09T00:43:09.785Z,10.23
2023-06-09T00:45:36.317Z,13.07
2023-06-09T00:48:02.996Z,9.13
2023-06-09T00:50:30.274Z,9.00
2023-06-09T00:52:57.401Z,11.77
2023-06-09T00:55:26.232Z,11.27
2023-06-09T00:57:56.824Z,9.30
2023-06-09T01:00:28.480Z,11.03
2023-06-09T01:03:02.003Z,9.98
2023-06-09T01:05:40.042Z,10.15
2023-06-09T01:08:26.800Z,12.30
2023-06-09T01:11:06.126Z,11.60
2023-06-09T01:14:08.367Z,12.23
2023-06-09T01:16:56.108Z,10.27
2023-06-09T01:19:33.950Z,10.43
2023-06-09T01:22:09.924Z,9.65
2023-06-09T01:24:54.979Z,12.40
2023-06-09T01:27:23.146Z,9.43
2023-06-09T01:29:52.698Z,13.80
2023-06-09T01:32:20.601Z,11.55
2023-06-09T01:34:48.580Z,10.43
2023-06-09T01:37:15.651Z,11.30
2023-06-09T01:39:42.580Z,14.18
2023-06-09T01:42:09.234Z,10.23
2023-06-09T01:44:35.841Z,10.57
2023-06-09T01:47:03.158Z,12.45
2023-06-09T01:49:41.663Z,11.60
2023-06-09T01:52:18.836Z,10.73
2023-06-09T01:54:55.519Z,10.18
2023-06-09T01:57:39.295Z,12.48
2023-06-09T02:00:08.263Z,11.15
2023-06-09T02:02:37.697Z,11.55
2023-06-09T02:05:08.055Z,10.25
2023-06-09T02:07:35.750Z,12.07
2023-06-09T02:10:03.905Z,11.23
2023-06-09T02:12:34.596Z,12.77
2023-06-09T02:15:01.693Z,10.60
2023-06-09T02:17:29.060Z,12.07
2023-06-09T02:19:56.140Z,11.10
2023-06-09T02:22:23.085Z,14.27
2023-06-09T02:24:49.562Z,9.80
2023-06-09T02:27:16.146Z,11.80
2023-06-09T02:29:42.662Z,10.50
2023-06-09T02:32:09.477Z,9.80
2023-06-09T02:34:36.183Z,13.75
2023-06-09T02:37:03.427Z,13.07
2023-06-09T02:39:29.951Z,12.60
2023-06-09T02:41:56.490Z,11.32
2023-06-09T02:44:23.097Z,12.13
2023-06-09T02:46:49.548Z,12.70
2023-06-09T02:49:17.464Z,9.82
2023-06-09T02:51:44.323Z,20.45
2023-06-09T02:54:10.801Z,13.95
2023-06-09T02:56:37.351Z,16.58
2023-06-09T02:59:03.945Z,13.57
2023-06-09T03:01:36.115Z,15.18
2023-06-09T03:04:08.803Z,11.07
2023-06-09T03:06:36.607Z,11.77
2023-06-09T03:09:04.076Z,16.05
2023-06-09T03:11:31.513Z,12.82
2023-06-09T03:13:58.035Z,13.45
2023-06-09T03:16:24.539Z,13.00
2023-06-09T03:18:51.098Z,11.63
2023-06-09T03:21:17.858Z,13.05
2023-06-09T03:23:44.432Z,11.50
2023-06-09T03:26:11.029Z,14.07
2023-06-09T03:28:37.493Z,19.48
2023-06-09T03:31:04.059Z,13.18
2023-06-09T03:33:31.049Z,12.27
2023-06-09T03:35:57.651Z,12.70
2023-06-09T03:38:24.207Z,19.25
2023-06-09T03:40:50.753Z,15.80
2023-06-09T03:43:17.300Z,13.13
2023-06-09T03:45:43.781Z,13.82
2023-06-09T03:48:10.386Z,21.20
2023-06-09T03:50:36.955Z,14.88
2023-06-09T03:53:03.448Z,16.00
2023-06-09T03:55:32.584Z,11.32
2023-06-09T03:57:59.311Z,14.77
2023-06-09T04:00:26.288Z,15.75
2023-06-09T04:02:52.863Z,16.38
2023-06-09T04:05:19.404Z,13.40
2023-06-09T04:07:45.995Z,27.98
2023-06-09T04:10:12.570Z,15.18
2023-06-09T04:12:41.968Z,14.77
2023-06-09T04:15:09.222Z,14.95
2023-06-09T04:17:37.887Z,15.65
2023-06-09T04:20:09.434Z,13.77
2023-06-09T04:25:03.692Z,12.93
2023-06-09T04:27:31.570Z,15.70
2023-06-09T04:29:58.745Z,15.65
2023-06-09T04:32:25.503Z,13.55
2023-06-09T04:34:53.734Z,16.05
2023-06-09T04:37:20.387Z,26.75
2023-06-09T04:39:48.222Z,16.88
2023-06-09T04:42:15.301Z,12.63
2023-06-09T04:44:44.592Z,17.08
2023-06-09T04:47:11.800Z,13.07
2023-06-09T04:49:38.660Z,14.15
2023-06-09T04:52:08.670Z,14.85
2023-06-09T04:54:35.465Z,13.93
2023-06-09T04:57:03.295Z,14.48
2023-06-09T04:59:29.980Z,15.55
2023-06-09T05:01:56.839Z,14.38
2023-06-09T05:04:23.445Z,14.63
2023-06-09T05:06:50.149Z,15.25
2023-06-09T05:09:16.737Z,12.63
2023-06-09T05:11:43.301Z,13.32
2023-06-09T05:14:09.846Z,18.45
2023-06-09T05:16:36.536Z,14.48
2023-06-09T05:19:03.504Z,12.55
2023-06-09T05:21:30.590Z,14.35
2023-06-09T05:23:57.248Z,13.93
2023-06-09T05:26:24.048Z,16.20
2023-06-09T05:28:50.641Z,13.40
2023-06-09T05:31:18.550Z,9.85
2023-06-09T05:33:45.500Z,10.57
2023-06-09T05:36:13.188Z,11.95
2023-06-09T05:38:39.805Z,12.00
2023-06-09T05:41:06.469Z,12.13
2023-06-09T05:43:33.483Z,12.98
2023-06-09T05:46:00.394Z,11.63
2023-06-09T05:48:27.041Z,13.95
2023-06-09T05:50:53.576Z,13.95
2023-06-09T05:53:20.089Z,13.10
2023-06-09T05:55:46.535Z,11.38
2023-06-09T05:58:14.528Z,12.05
2023-06-09T06:00:41.233Z,14.07
2023-06-09T06:03:09.616Z,10.65
2023-06-09T06:05:36.230Z,12.40
2023-06-09T06:08:02.782Z,14.77
2023-06-09T06:10:29.359Z,11.80
2023-06-09T06:12:59.189Z,11.77
2023-06-09T06:15:26.125Z,14.10
2023-06-09T06:17:52.658Z,13.32
2023-06-09T06:20:19.284Z,9.73
2023-06-09T06:22:45.799Z,14.55
2023-06-09T06:25:14.246Z,10.23
2023-06-09T06:27:42.223Z,10.30
2023-06-09T06:30:10.029Z,9.77
2023-06-09T06:32:39.304Z,10.70
2023-06-09T06:35:06.767Z,11.07
2023-06-09T06:37:34.222Z,9.23
2023-06-09T06:40:00.758Z,8.68
2023-06-09T06:42:27.217Z,11.25
2023-06-09T06:44:56.233Z,16.77
2023-06-09T06:47:24.320Z,10.10
2023-06-09T06:49:50.802Z,9.88
2023-06-09T06:52:17.309Z,11.05
2023-06-09T06:54:43.821Z,8.80
2023-06-09T06:57:10.523Z,7.63
2023-06-09T06:59:37.019Z,6.93
2023-06-09T07:02:03.859Z,8.20
2023-06-09T07:04:30.454Z,8.40
2023-06-09T07:06:57.222Z,10.38
2023-06-09T07:09:25.393Z,10.88
2023-06-09T07:11:51.863Z,7.72
2023-06-09T07:14:18.540Z,11.02
2023-06-09T07:16:45.002Z,7.95
2023-06-09T07:19:11.626Z,8.18
2023-06-09T07:21:38.624Z,8.93
2023-06-09T07:24:05.662Z,9.63
2023-06-09T07:26:33.419Z,7.97
2023-06-09T07:28:59.991Z,6.85
2023-06-09T07:31:26.625Z,8.15
2023-06-09T07:33:53.122Z,6.60
2023-06-09T07:36:20.468Z,9.02
2023-06-09T07:38:47.690Z,7.28
2023-06-09T07:41:14.974Z,8.63
2023-06-09T07:43:41.487Z,6.38
2023-06-09T07:46:08.482Z,8.23
2023-06-09T07:48:34.999Z,7.93
2023-06-09T07:51:04.254Z,14.85
2023-06-09T07:53:31.044Z,12.50
2023-06-09T07:55:58.369Z,6.25
2023-06-09T07:58:24.876Z,11.75
2023-06-09T08:00:52.245Z,7.68
2023-06-09T08:03:19.042Z,6.63
2023-06-09T08:05:45.631Z,6.25
2023-06-09T08:08:12.089Z,5.97
2023-06-09T08:10:38.583Z,7.60
2023-06-09T08:13:05.147Z,7.47
2023-06-09T08:15:32.014Z,11.27
2023-06-09T08:17:58.546Z,8.25
2023-06-09T08:20:25.178Z,6.97
2023-06-09T08:22:51.703Z,7.85
2023-06-09T08:25:18.323Z,7.70
2023-06-09T08:27:44.900Z,6.95
2023-06-09T08:30:11.962Z,8.57
2023-06-09T08:32:41.296Z,8.40
2023-06-09T08:35:09.192Z,9.93
2023-06-09T08:37:37.565Z,8.57
2023-06-09T08:40:07.037Z,9.68
2023-06-09T08:42:34.033Z,7.40
2023-06-09T08:45:05.089Z,9.30
2023-06-09T08:47:34.762Z,7.40
2023-06-09T08:50:03.724Z,12.75
2023-06-09T08:52:31.314Z,6.78
2023-06-09T08:55:00.171Z,9.93
2023-06-09T08:57:27.115Z,8.90
2023-06-09T08:59:54.298Z,8.45
2023-06-09T09:02:20.799Z,11.13
2023-06-09T09:04:48.161Z,10.23
2023-06-09T09:07:15.194Z,6.35
2023-06-09T09:09:42.230Z,8.57
2023-06-09T09:12:13.822Z,4.93
2023-06-09T09:14:42.923Z,6.30
2023-06-09T09:17:14.178Z,8.55
2023-06-09T09:19:52.992Z,5.82
2023-06-09T09:22:19.517Z,7.13
2023-06-09T09:24:47.083Z,8.05
2023-06-09T09:27:18.881Z,6.80
2023-06-09T09:29:46.279Z,7.82
2023-06-09T09:32:13.925Z,7.50
2023-06-09T09:34:42.378Z,6.32
2023-06-09T09:37:14.564Z,6.18
2023-06-09T09:39:53.961Z,6.05
2023-06-09T09:42:21.606Z,9.48
2023-06-09T09:44:52.021Z,8.15
2023-06-09T09:47:19.756Z,7.07
2023-06-09T09:49:51.306Z,6.07
2023-06-09T09:52:28.419Z,6.82
2023-06-09T09:54:57.445Z,5.47
2023-06-09T09:57:27.058Z,4.68
2023-06-09T09:59:53.963Z,5.68
2023-06-09T10:02:25.288Z,7.22
2023-06-09T10:04:52.229Z,5.35
2023-06-09T10:07:22.512Z,4.10
2023-06-09T10:09:54.633Z,7.68
2023-06-09T10:12:22.863Z,5.30
2023-06-09T10:14:52.142Z,5.72
2023-06-09T10:17:23.109Z,5.50
2023-06-09T10:19:53.443Z,4.85
2023-06-09T10:22:21.005Z,5.15
2023-06-09T10:24:47.805Z,7.10
2023-06-09T10:27:15.117Z,5.57
2023-06-09T10:29:42.266Z,6.38
2023-06-09T10:32:12.126Z,7.97
2023-06-09T10:34:41.987Z,5.53
2023-06-09T10:37:08.485Z,6.72
2023-06-09T10:39:56.846Z,6.07
2023-06-09T10:42:40.685Z,6.75
2023-06-09T10:45:15.121Z,6.45
2023-06-09T10:47:49.975Z,6.25
2023-06-09T10:50:25.955Z,5.15
2023-06-09T10:52:57.712Z,8.95
2023-06-09T10:55:28.219Z,4.68
2023-06-09T10:57:56.172Z,5.20
2023-06-09T11:00:24.228Z,5.10
2023-06-09T11:02:51.831Z,6.07
2023-06-09T11:05:21.418Z,7.40
2023-06-09T11:07:53.582Z,5.65
2023-06-09T11:10:20.057Z,8.40
2023-06-09T11:12:53.040Z,6.40
2023-06-09T11:15:20.049Z,7.22
2023-06-09T11:17:48.894Z,4.70
2023-06-09T11:20:18.700Z,6.57
2023-06-09T11:22:45.825Z,5.32
2023-06-09T11:25:18.502Z,7.32
2023-06-09T11:27:58.640Z,3.88
2023-06-09T11:30:31.081Z,5.75
2023-06-09T11:32:59.124Z,5.93
2023-06-09T11:35:29.338Z,8.10
2023-06-09T11:37:59.201Z,8.23
2023-06-09T11:40:26.758Z,7.60
2023-06-09T11:42:53.377Z,5.53
2023-06-09T11:45:23.851Z,10.00
2023-06-09T11:47:50.908Z,6.03
2023-06-09T11:50:17.508Z,7.63
2023-06-09T11:52:46.313Z,6.47
2023-06-09T11:55:15.902Z,5.40
2023-06-09T11:57:42.934Z,5.57
2023-06-09T12:00:14.884Z,7.40
2023-06-09T12:02:46.511Z,5.55
2023-06-09T12:05:13.840Z,4.60
2023-06-09T12:07:45.409Z,5.05
2023-06-09T12:10:18.351Z,3.80
2023-06-09T12:12:49.538Z,5.10
2023-06-09T12:15:17.505Z,5.68
2023-06-09T12:17:45.312Z,6.50
2023-06-09T12:20:27.315Z,5.38
2023-06-09T12:22:55.983Z,4.22
2023-06-09T12:25:28.216Z,5.13
2023-06-09T12:27:56.239Z,6.45
2023-06-09T12:30:36.114Z,4.72
2023-06-09T12:33:10.819Z,4.40
2023-06-09T12:35:49.051Z,6.38
2023-06-09T12:38:17.674Z,8.68
2023-06-09T12:40:50.006Z,5.57
2023-06-09T12:43:21.028Z,5.53
2023-06-09T12:45:48.854Z,7.95
2023-06-09T12:48:15.919Z,5.78
2023-06-09T12:50:43.079Z,5.35
2023-06-09T12:53:11.156Z,5.95
2023-06-09T12:55:39.182Z,6.90
2023-06-09T12:58:06.452Z,6.65
2023-06-09T13:00:33.739Z,5.22
2023-06-09T13:03:04.189Z,6.13
2023-06-09T13:05:32.049Z,5.30
2023-06-09T13:07:59.848Z,8.48
2023-06-09T13:10:27.784Z,5.63
2023-06-09T13:12:54.737Z,6.25
2023-06-09T13:15:23.133Z,5.70
2023-06-09T13:17:50.861Z,4.45
2023-06-09T13:20:18.697Z,4.90
2023-06-09T13:22:46.258Z,5.35
2023-06-09T13:25:13.259Z,6.22
2023-06-09T13:27:45.348Z,4.93
2023-06-09T13:30:12.550Z,6.93
2023-06-09T13:32:39.728Z,6.68
2023-06-09T13:35:07.079Z,4.90
2023-06-09T13:37:33.759Z,6.78
2023-06-09T13:40:00.314Z,4.95
2023-06-09T13:42:26.792Z,6.32
2023-06-09T13:44:53.399Z,7.57
2023-06-09T13:47:19.934Z,5.03
2023-06-09T13:49:46.804Z,5.35
2023-06-09T13:52:14.348Z,4.32
2023-06-09T13:54:40.811Z,5.20
2023-06-09T13:57:09.936Z,7.25
2023-06-09T13:59:38.145Z,8.00
2023-06-09T14:02:05.910Z,4.80
2023-06-09T14:04:33.432Z,5.22
2023-06-09T14:07:00.200Z,6.35
2023-06-09T14:09:26.725Z,4.50
2023-06-09T14:11:53.246Z,5.75
2023-06-09T14:14:19.769Z,4.63
2023-06-09T14:16:47.204Z,5.30
2023-06-09T14:19:20.608Z,6.65
2023-06-09T14:21:47.075Z,4.72
2023-06-09T14:24:13.626Z,4.72
2023-06-09T14:26:40.183Z,5.70
2023-06-09T14:29:06.641Z,18.88
2023-06-09T14:31:33.198Z,6.15
2023-06-09T14:33:59.783Z,5.40
2023-06-09T14:36:26.442Z,4.70
2023-06-09T14:38:52.927Z,8.55
2023-06-09T14:41:19.593Z,5.78
2023-06-09T14:43:46.188Z,5.20
2023-06-09T14:46:12.695Z,5.75
2023-06-09T14:48:39.202Z,8.30
2023-06-09T14:51:05.881Z,5.75
2023-06-09T14:53:32.409Z,5.60
2023-06-09T14:55:59.028Z,7.90
2023-06-09T14:58:25.584Z,4.40
2023-06-09T15:00:52.046Z,5.63
2023-06-09T15:03:19.095Z,5.43
2023-06-09T15:05:45.966Z,5.43
2023-06-09T15:08:12.667Z,5.55
2023-06-09T15:10:44.060Z,3.40
2023-06-09T15:13:11.784Z,5.15
2023-06-09T15:15:38.466Z,7.13
2023-06-09T15:18:06.883Z,4.45
2023-06-09T15:20:34.809Z,4.85
2023-06-09T15:23:03.836Z,5.60
2023-06-09T15:25:34.902Z,4.50
2023-06-09T15:28:06.567Z,4.75
2023-06-09T15:30:35.500Z,4.95
2023-06-09T15:33:10.271Z,4.32
2023-06-09T15:35:42.069Z,4.20
2023-06-09T15:38:14.962Z,5.95
2023-06-09T15:40:44.718Z,3.97
2023-06-09T15:43:13.366Z,5.88
2023-06-09T15:45:44.629Z,4.15
2023-06-09T15:48:12.240Z,4.22
2023-06-09T15:50:40.475Z,8.18
2023-06-09T15:53:08.454Z,7.97
2023-06-09T15:55:35.115Z,4.68
2023-06-09T15:58:04.144Z,9.77
2023-06-09T16:00:34.986Z,6.53
2023-06-09T16:03:05.746Z,17.83
2023-06-09T16:05:34.999Z,6.28
2023-06-09T16:08:04.615Z,5.93
2023-06-09T16:10:32.683Z,4.75
2023-06-09T16:13:00.414Z,6.90
2023-06-09T16:15:30.183Z,5.20
2023-06-09T16:17:57.926Z,5.88
2023-06-09T16:20:24.430Z,5.82
2023-06-09T16:22:50.920Z,9.30
2023-06-09T16:25:17.406Z,5.50
2023-06-09T16:27:44.912Z,11.45
2023-06-09T16:30:11.985Z,6.47
2023-06-09T16:32:40.356Z,7.07
2023-06-09T16:35:10.033Z,4.75
2023-06-09T16:37:36.734Z,7.15
2023-06-09T16:40:05.844Z,9.02
2023-06-09T16:42:33.116Z,5.38
2023-06-09T16:44:59.613Z,6.40
2023-06-09T16:47:26.172Z,5.70
2023-06-09T16:49:52.744Z,4.53
2023-06-09T16:52:20.011Z,6.47
2023-06-09T16:54:46.505Z,5.45
2023-06-09T16:57:13.287Z,9.48
2023-06-09T16:59:40.776Z,4.93
2023-06-09T17:02:07.617Z,8.23
2023-06-09T17:04:34.294Z,8.85
2023-06-09T17:07:00.751Z,9.10
2023-06-09T17:09:27.255Z,8.13
2023-06-09T17:11:53.768Z,6.45
2023-06-09T17:14:20.901Z,6.35
2023-06-09T17:16:47.569Z,8.98
2023-06-09T17:19:14.220Z,8.00
2023-06-09T17:21:40.674Z,4.80
2023-06-09T17:24:07.761Z,9.60
2023-06-09T17:26:34.377Z,6.28
2023-06-09T17:29:01.324Z,7.82
2023-06-09T17:31:27.954Z,5.97
2023-06-09T17:33:54.633Z,5.97
2023-06-09T17:36:22.046Z,6.95
2023-06-09T17:38:50.667Z,6.88
2023-06-09T17:41:19.571Z,7.07
2023-06-09T17:43:46.112Z,8.82
2023-06-09T17:46:13.128Z,5.68
2023-06-09T17:48:44.609Z,7.20
2023-06-09T17:51:13.022Z,9.07
2023-06-09T17:53:42.214Z,7.32
2023-06-09T17:56:09.372Z,7.10
2023-06-09T17:58:35.993Z,8.55
2023-06-09T18:01:02.603Z,6.75
2023-06-09T18:03:29.216Z,6.25
2023-06-09T18:05:55.897Z,7.40
2023-06-09T18:08:23.058Z,6.68
2023-06-09T18:10:49.720Z,9.38
2023-06-09T18:13:17.198Z,5.65
2023-06-09T18:15:44.748Z,7.43
2023-06-09T18:18:11.572Z,7.85
2023-06-09T18:20:38.226Z,9.13
2023-06-09T18:23:04.769Z,9.00
2023-06-09T18:25:32.863Z,8.30
2023-06-09T18:28:01.839Z,8.43
2023-06-09T18:30:29.428Z,8.85
2023-06-09T18:32:55.997Z,5.35
2023-06-09T18:35:22.511Z,5.47
2023-06-09T18:37:49.011Z,5.85
2023-06-09T18:40:15.634Z,7.13
2023-06-09T18:42:42.161Z,6.38
2023-06-09T18:45:09.678Z,7.15
2023-06-09T18:47:36.855Z,14.63
2023-06-09T18:50:03.730Z,11.38
2023-06-09T18:52:31.200Z,8.80
2023-06-09T18:54:57.742Z,14.73
2023-06-09T18:57:24.445Z,8.55
2023-06-09T18:59:51.022Z,8.75
2023-06-09T19:02:17.777Z,10.05
2023-06-09T19:04:45.853Z,7.95
2023-06-09T19:07:12.857Z,7.20
2023-06-09T19:09:39.489Z,12.63
2023-06-09T19:12:06.906Z,7.13
2023-06-09T19:14:33.802Z,10.05
2023-06-09T19:17:00.407Z,10.65
2023-06-09T19:19:26.954Z,9.55
2023-06-09T19:21:55.181Z,11.00
2023-06-09T19:24:21.926Z,8.40
2023-06-09T19:26:48.578Z,7.88
2023-06-09T19:29:15.386Z,10.77
2023-06-09T19:31:42.014Z,10.95
2023-06-09T19:34:08.556Z,7.63
2023-06-09T19:36:35.153Z,11.07
2023-06-09T19:39:02.654Z,5.70
2023-06-09T19:41:29.255Z,11.88
2023-06-09T19:43:55.767Z,8.75
2023-06-09T19:46:22.364Z,6.97
2023-06-09T19:48:48.894Z,11.73
2023-06-09T19:51:16.542Z,9.23
2023-06-09T19:53:43.082Z,11.57
2023-06-09T19:56:12.630Z,12.82
2023-06-09T19:58:39.690Z,9.70
2023-06-09T20:01:06.321Z,8.05
2023-06-09T20:03:33.066Z,8.45
2023-06-09T20:05:59.636Z,15.07
2023-06-09T20:08:26.486Z,9.35
2023-06-09T20:10:52.988Z,12.15
2023-06-09T20:13:19.551Z,12.80
2023-06-09T20:15:46.197Z,8.88
2023-06-09T20:18:13.498Z,9.15
2023-06-09T20:20:42.808Z,9.68
2023-06-09T20:23:11.491Z,9.90
2023-06-09T20:25:38.840Z,8.90
2023-06-09T20:28:05.539Z,13.27
2023-06-09T20:30:32.080Z,10.02
2023-06-09T20:32:58.628Z,10.80
2023-06-09T20:35:25.974Z,7.03
2023-06-09T20:37:53.440Z,12.88
2023-06-09T20:40:20.200Z,10.85
2023-06-09T20:42:47.224Z,9.73
2023-06-09T20:45:17.379Z,13.75
2023-06-09T20:47:45.046Z,11.60
2023-06-09T20:50:11.689Z,10.00
2023-06-09T20:52:38.248Z,12.05
2023-06-09T20:55:05.348Z,10.63
2023-06-09T20:57:31.974Z,7.03
2023-06-09T20:59:58.741Z,8.82
2023-06-09T21:02:26.887Z,11.25
2023-06-09T21:04:55.204Z,9.77
2023-06-09T21:07:23.016Z,13.23
2023-06-09T21:09:49.523Z,8.48
2023-06-09T21:12:16.425Z,10.30
2023-06-09T21:14:43.060Z,13.02
2023-06-09T21:17:10.341Z,9.50
2023-06-09T21:19:42.885Z,10.60
2023-06-09T21:22:09.364Z,10.20
2023-06-09T21:24:35.818Z,10.68
2023-06-09T21:27:02.417Z,8.88
2023-06-09T21:29:28.917Z,9.40
2023-06-09T21:31:55.596Z,10.32
2023-06-09T21:34:22.117Z,14.23
2023-06-09T21:36:48.619Z,10.85
2023-06-09T21:39:15.100Z,11.93
2023-06-09T21:41:41.882Z,11.38
2023-06-09T21:44:08.410Z,9.88
2023-06-09T21:46:34.906Z,18.40
2023-06-09T21:49:01.454Z,13.90
2023-06-09T21:51:27.943Z,11.55
2023-06-09T21:53:54.487Z,10.32
2023-06-09T21:56:21.026Z,7.93
2023-06-09T21:58:47.587Z,10.73
2023-06-09T22:01:14.173Z,11.50
2023-06-09T22:03:40.779Z,10.30
2023-06-09T22:06:07.548Z,10.63
2023-06-09T22:08:35.894Z,10.77
2023-06-09T22:11:03.977Z,11.45
2023-06-09T22:13:30.642Z,9.15
2023-06-09T22:15:57.113Z,9.82
2023-06-09T22:18:23.639Z,15.05
2023-06-09T22:20:50.165Z,11.88
2023-06-09T22:23:16.708Z,13.95
2023-06-09T22:25:43.367Z,8.23
2023-06-09T22:28:09.888Z,13.65
2023-06-09T22:30:36.414Z,10.18
2023-06-09T22:33:03.252Z,8.52
2023-06-09T22:35:29.876Z,10.07
2023-06-09T22:37:56.564Z,17.15
2023-06-09T22:40:23.142Z,16.38
2023-06-09T22:42:50.981Z,9.15
2023-06-09T22:45:18.217Z,13.55
2023-06-09T22:47:46.328Z,9.30
2023-06-09T22:50:14.454Z,12.88
2023-06-09T22:52:44.351Z,14.38
2023-06-09T22:55:12.552Z,10.05
2023-06-09T22:57:40.038Z,17.85
2023-06-09T23:00:08.806Z,8.15
2023-06-09T23:02:36.143Z,15.07
2023-06-09T23:05:06.366Z,11.95
2023-06-09T23:07:33.054Z,14.30
2023-06-09T23:09:59.547Z,7.45
2023-06-09T23:12:26.239Z,10.00
2023-06-09T23:14:54.036Z,12.80
2023-06-09T23:17:20.657Z,10.98
2023-06-09T23:19:47.248Z,14.68
2023-06-09T23:22:14.304Z,10.23
2023-06-09T23:24:45.922Z,11.75
2023-06-09T23:27:13.007Z,10.13
2023-06-09T23:29:39.513Z,12.35
2023-06-09T23:32:12.667Z,9.77
2023-06-09T23:34:42.657Z,16.23
2023-06-09T23:37:13.590Z,9.13
2023-06-09T23:39:40.803Z,12.02
2023-06-09T23:42:08.810Z,10.45
2023-06-09T23:44:35.312Z,7.03
2023-06-09T23:47:02.757Z,13.07
2023-06-09T23:49:29.297Z,6.93
2023-06-09T23:51:55.963Z,11.75
2023-06-09T23:54:23.487Z,11.07
2023-06-09T23:56:50.010Z,14.18
2023-06-09T23:59:16.886Z,8.45
